sensor_id;sensor_type;location;lat;lon;timestamp;P1;durP1;ratioP1;P2;durP2;ratioP2
28958;SDS011;16066;0.000;0.000;2023-09-18T05:30:34;5.17;;;3.13;;
28958;SDS011;16066;0.000;0.000;2023-09-18T05:33:03;13.57;;;3.70;;
28958;SDS011;16066;0.000;0.000;2023-09-18T05:35:30;9.37;;;3.70;;
28958;SDS011;16066;0.000;0.000;2023-09-18T05:38:00;12.97;;;3.33;;
28958;SDS011;16066;0.000;0.000;2023-09-18T05:40:25;10.50;;;4.20;;
28958;SDS011;16066;0.000;0.000;2023-09-18T05:42:54;12.00;;;3.70;;
28958;SDS011;16066;0.000;0.000;2023-09-18T05:45:22;11.40;;;3.30;;
28958;SDS011;16066;0.000;0.000;2023-09-18T05:47:48;9.23;;;3.33;;
28958;SDS011;16066;0.000;0.000;2023-09-18T05:50:15;7.57;;;3.33;;
28958;SDS011;16066;0.000;0.000;2023-09-18T05:52:42;6.37;;;3.30;;
28958;SDS011;16066;0.000;0.000;2023-09-18T05:55:12;6.33;;;2.90;;
28958;SDS011;16066;0.000;0.000;2023-09-18T05:57:39;11.33;;;3.90;;
28958;SDS011;16066;0.000;0.000;2023-09-18T06:00:05;9.47;;;3.97;;
28958;SDS011;16066;0.000;0.000;2023-09-18T06:02:31;9.60;;;3.53;;
28958;SDS011;16066;0.000;0.000;2023-09-18T06:05:00;18.27;;;3.50;;
28958;SDS011;16066;0.000;0.000;2023-09-18T06:07:31;8.73;;;3.50;;
28958;SDS011;16066;0.000;0.000;2023-09-18T06:09:57;7.67;;;3.50;;
28958;SDS011;16066;0.000;0.000;2023-09-18T06:12:23;13.20;;;3.60;;
28958;SDS011;16066;0.000;0.000;2023-09-18T06:14:49;6.80;;;3.47;;
28958;SDS011;16066;0.000;0.000;2023-09-18T06:17:15;8.87;;;3.10;;
28958;SDS011;16066;0.000;0.000;2023-09-18T06:19:42;9.73;;;3.37;;
28958;SDS011;16066;0.000;0.000;2023-09-18T06:22:08;9.47;;;3.30;;
28958;SDS011;16066;0.000;0.000;2023-09-18T06:24:34;12.47;;;3.30;;
28958;SDS011;16066;0.000;0.000;2023-09-18T06:27:00;7.50;;;3.10;;
28958;SDS011;16066;0.000;0.000;2023-09-18T06:29:26;5.87;;;2.90;;
28958;SDS011;16066;0.000;0.000;2023-09-18T06:31:51;8.73;;;3.90;;
28958;SDS011;16066;0.000;0.000;2023-09-18T06:34:17;8.10;;;2.90;;
28958;SDS011;16066;0.000;0.000;2023-09-18T06:36:42;9.20;;;3.50;;
28958;SDS011;16066;0.000;0.000;2023-09-18T06:39:08;6.53;;;2.90;;
28958;SDS011;16066;0.000;0.000;2023-09-18T06:41:33;7.80;;;3.10;;
28958;SDS011;16066;0.000;0.000;2023-09-18T06:43:59;6.17;;;3.17;;
28958;SDS011;16066;0.000;0.000;2023-09-18T06:46:28;5.13;;;2.60;;
28958;SDS011;16066;0.000;0.000;2023-09-18T06:48:54;10.73;;;3.70;;
28958;SDS011;16066;0.000;0.000;2023-09-18T06:51:21;8.50;;;2.47;;
28958;SDS011;16066;0.000;0.000;2023-09-18T06:53:46;12.83;;;3.40;;
28958;SDS011;16066;0.000;0.000;2023-09-18T06:56:12;7.40;;;3.00;;
28958;SDS011;16066;0.000;0.000;2023-09-18T06:58:38;10.30;;;3.57;;
28958;SDS011;16066;0.000;0.000;2023-09-18T07:01:03;6.53;;;3.43;;
28958;SDS011;16066;0.000;0.000;2023-09-18T07:03:31;8.23;;;2.70;;
28958;SDS011;16066;0.000;0.000;2023-09-18T07:06:01;8.90;;;2.43;;
28958;SDS011;16066;0.000;0.000;2023-09-18T07:08:27;8.97;;;3.00;;
28958;SDS011;16066;0.000;0.000;2023-09-18T07:10:53;9.10;;;3.40;;
28958;SDS011;16066;0.000;0.000;2023-09-18T07:13:19;6.13;;;2.50;;
28958;SDS011;16066;0.000;0.000;2023-09-18T07:15:44;9.50;;;2.60;;
28958;SDS011;16066;0.000;0.000;2023-09-18T07:18:10;7.83;;;3.00;;
28958;SDS011;16066;0.000;0.000;2023-09-18T07:20:39;7.17;;;2.80;;
28958;SDS011;16066;0.000;0.000;2023-09-18T07:23:05;7.40;;;2.80;;
28958;SDS011;16066;0.000;0.000;2023-09-18T07:25:31;7.17;;;3.00;;
28958;SDS011;16066;0.000;0.000;2023-09-18T07:27:56;10.37;;;2.90;;
28958;SDS011;16066;0.000;0.000;2023-09-18T07:30:22;7.33;;;2.90;;
28958;SDS011;16066;0.000;0.000;2023-09-18T07:32:51;7.43;;;2.37;;
28958;SDS011;16066;0.000;0.000;2023-09-18T07:35:23;8.47;;;2.53;;
28958;SDS011;16066;0.000;0.000;2023-09-18T07:37:51;8.20;;;2.30;;
28958;SDS011;16066;0.000;0.000;2023-09-18T07:40:17;5.53;;;2.33;;
28958;SDS011;16066;0.000;0.000;2023-09-18T07:42:42;10.63;;;3.00;;
28958;SDS011;16066;0.000;0.000;2023-09-18T07:45:12;6.07;;;2.80;;
28958;SDS011;16066;0.000;0.000;2023-09-18T07:47:38;5.23;;;2.33;;
28958;SDS011;16066;0.000;0.000;2023-09-18T07:50:04;7.97;;;1.97;;
28958;SDS011;16066;0.000;0.000;2023-09-18T07:52:30;7.57;;;2.40;;
28958;SDS011;16066;0.000;0.000;2023-09-18T07:54:56;6.60;;;2.57;;
28958;SDS011;16066;0.000;0.000;2023-09-18T07:57:23;6.53;;;2.53;;
28958;SDS011;16066;0.000;0.000;2023-09-18T07:59:49;5.93;;;1.83;;
28958;SDS011;16066;0.000;0.000;2023-09-18T08:02:15;5.10;;;2.23;;
28958;SDS011;16066;0.000;0.000;2023-09-18T08:04:42;4.77;;;2.00;;
28958;SDS011;16066;0.000;0.000;2023-09-18T08:07:07;5.40;;;2.67;;
28958;SDS011;16066;0.000;0.000;2023-09-18T08:09:33;6.77;;;2.30;;
28958;SDS011;16066;0.000;0.000;2023-09-18T08:12:01;3.50;;;1.97;;
28958;SDS011;16066;0.000;0.000;2023-09-18T08:14:31;7.77;;;2.50;;
28958;SDS011;16066;0.000;0.000;2023-09-18T08:16:57;4.20;;;2.70;;
28958;SDS011;16066;0.000;0.000;2023-09-18T08:19:23;9.27;;;2.73;;
28958;SDS011;16066;0.000;0.000;2023-09-18T08:21:51;9.87;;;2.30;;
28958;SDS011;16066;0.000;0.000;2023-09-18T08:24:19;6.53;;;2.73;;
28958;SDS011;16066;0.000;0.000;2023-09-18T08:26:44;5.13;;;1.97;;
28958;SDS011;16066;0.000;0.000;2023-09-18T08:29:10;4.17;;;1.67;;
28958;SDS011;16066;0.000;0.000;2023-09-18T08:31:35;4.80;;;2.30;;
28958;SDS011;16066;0.000;0.000;2023-09-18T08:34:01;4.97;;;1.77;;
28958;SDS011;16066;0.000;0.000;2023-09-18T08:36:26;2.83;;;1.77;;
28958;SDS011;16066;0.000;0.000;2023-09-18T08:38:54;5.90;;;2.03;;
28958;SDS011;16066;0.000;0.000;2023-09-18T08:41:20;5.40;;;2.10;;
28958;SDS011;16066;0.000;0.000;2023-09-18T08:43:50;5.47;;;2.00;;
28958;SDS011;16066;0.000;0.000;2023-09-18T08:46:17;7.20;;;2.40;;
28958;SDS011;16066;0.000;0.000;2023-09-18T08:48:43;3.90;;;1.60;;
28958;SDS011;16066;0.000;0.000;2023-09-18T08:51:10;4.07;;;1.73;;
28958;SDS011;16066;0.000;0.000;2023-09-18T08:53:36;5.83;;;2.17;;
28958;SDS011;16066;0.000;0.000;2023-09-18T08:56:03;4.73;;;2.00;;
28958;SDS011;16066;0.000;0.000;2023-09-18T08:58:33;8.50;;;2.00;;
28958;SDS011;16066;0.000;0.000;2023-09-18T09:01:02;2.77;;;1.70;;
28958;SDS011;16066;0.000;0.000;2023-09-18T09:03:34;5.73;;;1.80;;
28958;SDS011;16066;0.000;0.000;2023-09-18T09:06:01;3.40;;;1.73;;
28958;SDS011;16066;0.000;0.000;2023-09-18T09:08:28;6.00;;;2.10;;
28958;SDS011;16066;0.000;0.000;2023-09-18T09:10:53;5.60;;;2.10;;
28958;SDS011;16066;0.000;0.000;2023-09-18T09:13:19;3.30;;;1.90;;
28958;SDS011;16066;0.000;0.000;2023-09-18T09:15:50;10.40;;;1.63;;
28958;SDS011;16066;0.000;0.000;2023-09-18T09:18:19;6.30;;;1.70;;
28958;SDS011;16066;0.000;0.000;2023-09-18T09:21:03;6.10;;;2.30;;
28958;SDS011;16066;0.000;0.000;2023-09-18T09:23:52;5.93;;;2.00;;
28958;SDS011;16066;0.000;0.000;2023-09-18T09:26:18;4.33;;;2.03;;
28958;SDS011;16066;0.000;0.000;2023-09-18T09:28:45;3.23;;;1.80;;
28958;SDS011;16066;0.000;0.000;2023-09-18T09:31:22;4.43;;;2.17;;
28958;SDS011;16066;0.000;0.000;2023-09-18T09:33:52;8.27;;;2.30;;
28958;SDS011;16066;0.000;0.000;2023-09-18T09:36:19;6.27;;;2.10;;
28958;SDS011;16066;0.000;0.000;2023-09-18T09:38:45;2.03;;;1.60;;
28958;SDS011;16066;0.000;0.000;2023-09-18T09:41:14;5.80;;;1.93;;
28958;SDS011;16066;0.000;0.000;2023-09-18T09:43:41;3.00;;;2.13;;
28958;SDS011;16066;0.000;0.000;2023-09-18T09:46:13;6.97;;;1.93;;
28958;SDS011;16066;0.000;0.000;2023-09-18T09:48:57;2.60;;;1.80;;
28958;SDS011;16066;0.000;0.000;2023-09-18T09:51:26;7.30;;;2.17;;
28958;SDS011;16066;0.000;0.000;2023-09-18T09:53:53;3.00;;;1.77;;
28958;SDS011;16066;0.000;0.000;2023-09-18T09:56:18;4.03;;;2.00;;
28958;SDS011;16066;0.000;0.000;2023-09-18T09:58:44;4.17;;;2.00;;
28958;SDS011;16066;0.000;0.000;2023-09-18T10:01:24;4.27;;;1.80;;
28958;SDS011;16066;0.000;0.000;2023-09-18T10:03:52;3.50;;;2.00;;
28958;SDS011;16066;0.000;0.000;2023-09-18T10:06:20;3.60;;;1.93;;
28958;SDS011;16066;0.000;0.000;2023-09-18T10:08:46;3.43;;;1.90;;
28958;SDS011;16066;0.000;0.000;2023-09-18T10:11:13;4.77;;;1.80;;
28958;SDS011;16066;0.000;0.000;2023-09-18T10:13:50;6.53;;;2.10;;
28958;SDS011;16066;0.000;0.000;2023-09-18T10:16:20;3.07;;;1.50;;
28958;SDS011;16066;0.000;0.000;2023-09-18T10:18:56;2.27;;;1.90;;
28958;SDS011;16066;0.000;0.000;2023-09-18T10:26:54;2.00;;;1.60;;
28958;SDS011;16066;0.000;0.000;2023-09-18T10:29:23;3.87;;;1.90;;
28958;SDS011;16066;0.000;0.000;2023-09-18T10:31:50;3.47;;;1.90;;
28958;SDS011;16066;0.000;0.000;2023-09-18T10:34:17;6.73;;;2.30;;
28958;SDS011;16066;0.000;0.000;2023-09-18T10:36:46;4.07;;;1.73;;
28958;SDS011;16066;0.000;0.000;2023-09-18T10:39:12;4.97;;;1.70;;
28958;SDS011;16066;0.000;0.000;2023-09-18T10:41:38;6.07;;;2.43;;
28958;SDS011;16066;0.000;0.000;2023-09-18T10:44:06;5.00;;;2.47;;
28958;SDS011;16066;0.000;0.000;2023-09-18T10:46:32;2.47;;;1.83;;
28958;SDS011;16066;0.000;0.000;2023-09-18T10:49:01;5.83;;;1.90;;
28958;SDS011;16066;0.000;0.000;2023-09-18T10:51:28;2.30;;;1.57;;
28958;SDS011;16066;0.000;0.000;2023-09-18T10:53:56;3.40;;;2.10;;
28958;SDS011;16066;0.000;0.000;2023-09-18T10:56:22;2.30;;;1.53;;
28958;SDS011;16066;0.000;0.000;2023-09-18T10:58:55;4.60;;;1.97;;
28958;SDS011;16066;0.000;0.000;2023-09-18T11:01:25;4.90;;;1.50;;
28958;SDS011;16066;0.000;0.000;2023-09-18T11:03:52;3.30;;;1.93;;
28958;SDS011;16066;0.000;0.000;2023-09-18T11:06:22;4.43;;;2.17;;
28958;SDS011;16066;0.000;0.000;2023-09-18T11:08:51;4.87;;;1.73;;
28958;SDS011;16066;0.000;0.000;2023-09-18T11:11:26;3.10;;;1.63;;
28958;SDS011;16066;0.000;0.000;2023-09-18T11:13:54;5.37;;;1.83;;
28958;SDS011;16066;0.000;0.000;2023-09-18T11:18:53;8.73;;;2.23;;
28958;SDS011;16066;0.000;0.000;2023-09-18T11:21:26;3.90;;;1.90;;
28958;SDS011;16066;0.000;0.000;2023-09-18T11:23:59;3.23;;;1.80;;
28958;SDS011;16066;0.000;0.000;2023-09-18T11:26:30;4.50;;;2.03;;
28958;SDS011;16066;0.000;0.000;2023-09-18T11:29:00;3.00;;;1.60;;
28958;SDS011;16066;0.000;0.000;2023-09-18T11:31:42;4.07;;;1.57;;
28958;SDS011;16066;0.000;0.000;2023-09-18T11:34:27;4.27;;;1.87;;
28958;SDS011;16066;0.000;0.000;2023-09-18T11:36:56;6.93;;;1.77;;
28958;SDS011;16066;0.000;0.000;2023-09-18T11:39:32;5.80;;;1.77;;
28958;SDS011;16066;0.000;0.000;2023-09-18T11:42:18;5.10;;;2.10;;
28958;SDS011;16066;0.000;0.000;2023-09-18T11:44:47;4.50;;;1.70;;
28958;SDS011;16066;0.000;0.000;2023-09-18T11:47:18;2.90;;;1.70;;
28958;SDS011;16066;0.000;0.000;2023-09-18T11:49:49;1.77;;;1.67;;
28958;SDS011;16066;0.000;0.000;2023-09-18T11:52:21;2.47;;;1.63;;
28958;SDS011;16066;0.000;0.000;2023-09-18T11:54:47;2.03;;;1.40;;
28958;SDS011;16066;0.000;0.000;2023-09-18T11:57:14;7.27;;;1.80;;
28958;SDS011;16066;0.000;0.000;2023-09-18T11:59:41;1.63;;;1.40;;
28958;SDS011;16066;0.000;0.000;2023-09-18T12:02:11;2.90;;;1.67;;
28958;SDS011;16066;0.000;0.000;2023-09-18T12:05:21;3.90;;;1.70;;
28958;SDS011;16066;0.000;0.000;2023-09-18T12:07:49;3.20;;;1.70;;
28958;SDS011;16066;0.000;0.000;2023-09-18T12:10:16;2.90;;;1.80;;
28958;SDS011;16066;0.000;0.000;2023-09-18T12:12:43;2.00;;;1.60;;
28958;SDS011;16066;0.000;0.000;2023-09-18T12:15:13;12.63;;;5.77;;
28958;SDS011;16066;0.000;0.000;2023-09-18T12:17:40;25.53;;;11.33;;
28958;SDS011;16066;0.000;0.000;2023-09-18T12:20:06;18.60;;;10.67;;
28958;SDS011;16066;0.000;0.000;2023-09-18T12:22:32;22.30;;;9.60;;
28958;SDS011;16066;0.000;0.000;2023-09-18T12:25:10;15.43;;;8.80;;
28958;SDS011;16066;0.000;0.000;2023-09-18T12:27:36;19.87;;;10.00;;
28958;SDS011;16066;0.000;0.000;2023-09-18T12:30:03;17.63;;;7.67;;
28958;SDS011;16066;0.000;0.000;2023-09-18T12:32:29;14.33;;;7.13;;
28958;SDS011;16066;0.000;0.000;2023-09-18T12:34:57;11.50;;;5.70;;
28958;SDS011;16066;0.000;0.000;2023-09-18T12:37:23;9.50;;;4.40;;
28958;SDS011;16066;0.000;0.000;2023-09-18T12:39:49;4.60;;;3.20;;
28958;SDS011;16066;0.000;0.000;2023-09-18T12:42:17;4.60;;;3.20;;
28958;SDS011;16066;0.000;0.000;2023-09-18T12:44:44;5.00;;;2.90;;
28958;SDS011;16066;0.000;0.000;2023-09-18T12:47:11;6.30;;;3.00;;
28958;SDS011;16066;0.000;0.000;2023-09-18T12:49:37;5.53;;;2.40;;
28958;SDS011;16066;0.000;0.000;2023-09-18T12:52:05;3.67;;;2.40;;
28958;SDS011;16066;0.000;0.000;2023-09-18T12:54:39;4.17;;;2.17;;
28958;SDS011;16066;0.000;0.000;2023-09-18T12:57:05;3.80;;;2.10;;
28958;SDS011;16066;0.000;0.000;2023-09-18T12:59:32;1.93;;;1.67;;
28958;SDS011;16066;0.000;0.000;2023-09-18T13:02:00;3.20;;;1.90;;
28958;SDS011;16066;0.000;0.000;2023-09-18T13:04:29;3.87;;;1.53;;
28958;SDS011;16066;0.000;0.000;2023-09-18T13:07:12;5.30;;;3.57;;
28958;SDS011;16066;0.000;0.000;2023-09-18T13:09:39;2.13;;;1.83;;
28958;SDS011;16066;0.000;0.000;2023-09-18T13:12:05;2.03;;;1.80;;
28958;SDS011;16066;0.000;0.000;2023-09-18T13:17:40;4.10;;;1.97;;
28958;SDS011;16066;0.000;0.000;2023-09-18T13:20:16;3.73;;;1.70;;
28958;SDS011;16066;0.000;0.000;2023-09-18T13:22:47;1.70;;;1.53;;
28958;SDS011;16066;0.000;0.000;2023-09-18T13:25:18;2.23;;;1.53;;
28958;SDS011;16066;0.000;0.000;2023-09-18T13:27:48;4.33;;;1.90;;
28958;SDS011;16066;0.000;0.000;2023-09-18T13:30:14;3.53;;;2.20;;
28958;SDS011;16066;0.000;0.000;2023-09-18T13:32:42;3.03;;;2.33;;
28958;SDS011;16066;0.000;0.000;2023-09-18T13:35:09;2.00;;;1.63;;
28958;SDS011;16066;0.000;0.000;2023-09-18T13:37:36;6.73;;;2.10;;
28958;SDS011;16066;0.000;0.000;2023-09-18T13:40:03;2.33;;;1.53;;
28958;SDS011;16066;0.000;0.000;2023-09-18T13:42:32;2.77;;;1.60;;
28958;SDS011;16066;0.000;0.000;2023-09-18T13:44:58;5.17;;;2.00;;
28958;SDS011;16066;0.000;0.000;2023-09-18T13:47:25;2.87;;;1.70;;
28958;SDS011;16066;0.000;0.000;2023-09-18T13:49:54;2.87;;;2.30;;
28958;SDS011;16066;0.000;0.000;2023-09-18T13:52:24;1.93;;;1.70;;
28958;SDS011;16066;0.000;0.000;2023-09-18T13:54:53;2.90;;;1.80;;
28958;SDS011;16066;0.000;0.000;2023-09-18T13:57:19;2.90;;;1.60;;
28958;SDS011;16066;0.000;0.000;2023-09-18T13:59:45;2.23;;;1.70;;
28958;SDS011;16066;0.000;0.000;2023-09-18T14:02:12;4.63;;;2.30;;
28958;SDS011;16066;0.000;0.000;2023-09-18T14:04:37;3.20;;;1.83;;
28958;SDS011;16066;0.000;0.000;2023-09-18T14:07:04;3.47;;;1.70;;
28958;SDS011;16066;0.000;0.000;2023-09-18T14:09:30;1.60;;;1.50;;
28958;SDS011;16066;0.000;0.000;2023-09-18T14:11:56;5.17;;;1.80;;
28958;SDS011;16066;0.000;0.000;2023-09-18T14:14:22;2.50;;;1.83;;
28958;SDS011;16066;0.000;0.000;2023-09-18T14:16:49;2.03;;;1.40;;
28958;SDS011;16066;0.000;0.000;2023-09-18T14:19:18;2.60;;;1.50;;
28958;SDS011;16066;0.000;0.000;2023-09-18T14:21:44;1.70;;;1.43;;
28958;SDS011;16066;0.000;0.000;2023-09-18T14:24:10;2.27;;;2.07;;
28958;SDS011;16066;0.000;0.000;2023-09-18T14:26:36;2.30;;;1.53;;
28958;SDS011;16066;0.000;0.000;2023-09-18T14:29:09;2.10;;;1.70;;
28958;SDS011;16066;0.000;0.000;2023-09-18T14:31:38;2.47;;;1.93;;
28958;SDS011;16066;0.000;0.000;2023-09-18T14:34:04;6.00;;;1.73;;
28958;SDS011;16066;0.000;0.000;2023-09-18T14:36:33;3.40;;;1.73;;
28958;SDS011;16066;0.000;0.000;2023-09-18T14:38:59;3.57;;;1.70;;
28958;SDS011;16066;0.000;0.000;2023-09-18T14:41:25;6.40;;;1.80;;
28958;SDS011;16066;0.000;0.000;2023-09-18T14:43:52;2.03;;;1.80;;
28958;SDS011;16066;0.000;0.000;2023-09-18T14:46:17;3.17;;;1.80;;
28958;SDS011;16066;0.000;0.000;2023-09-18T14:48:43;7.60;;;1.87;;
28958;SDS011;16066;0.000;0.000;2023-09-18T14:51:09;2.73;;;1.80;;
28958;SDS011;16066;0.000;0.000;2023-09-18T14:53:34;2.40;;;1.60;;
28958;SDS011;16066;0.000;0.000;2023-09-18T14:56:00;8.10;;;2.00;;
28958;SDS011;16066;0.000;0.000;2023-09-18T14:58:26;3.70;;;1.93;;
28958;SDS011;16066;0.000;0.000;2023-09-18T15:00:52;2.97;;;1.83;;
28958;SDS011;16066;0.000;0.000;2023-09-18T15:03:18;2.67;;;1.77;;
28958;SDS011;16066;0.000;0.000;2023-09-18T15:05:44;2.40;;;1.87;;
28958;SDS011;16066;0.000;0.000;2023-09-18T15:08:10;3.97;;;1.70;;
28958;SDS011;16066;0.000;0.000;2023-09-18T15:10:36;3.20;;;1.70;;
28958;SDS011;16066;0.000;0.000;2023-09-18T15:13:02;2.67;;;1.33;;
28958;SDS011;16066;0.000;0.000;2023-09-18T15:15:28;5.03;;;1.93;;
28958;SDS011;16066;0.000;0.000;2023-09-18T15:17:53;4.30;;;1.70;;
28958;SDS011;16066;0.000;0.000;2023-09-18T15:20:19;1.90;;;1.37;;
28958;SDS011;16066;0.000;0.000;2023-09-18T15:22:49;2.30;;;1.70;;
28958;SDS011;16066;0.000;0.000;2023-09-18T15:25:14;1.87;;;1.60;;
28958;SDS011;16066;0.000;0.000;2023-09-18T15:27:41;4.20;;;1.80;;
28958;SDS011;16066;0.000;0.000;2023-09-18T15:30:07;5.47;;;2.13;;
28958;SDS011;16066;0.000;0.000;2023-09-18T15:32:52;4.10;;;1.97;;
28958;SDS011;16066;0.000;0.000;2023-09-18T15:35:19;2.10;;;1.90;;
28958;SDS011;16066;0.000;0.000;2023-09-18T15:37:45;1.97;;;1.63;;
28958;SDS011;16066;0.000;0.000;2023-09-18T15:40:11;1.97;;;1.60;;
28958;SDS011;16066;0.000;0.000;2023-09-18T15:42:40;1.53;;;1.43;;
28958;SDS011;16066;0.000;0.000;2023-09-18T15:45:06;2.53;;;1.80;;
28958;SDS011;16066;0.000;0.000;2023-09-18T15:47:33;2.70;;;1.73;;
28958;SDS011;16066;0.000;0.000;2023-09-18T15:49:59;2.90;;;1.67;;
28958;SDS011;16066;0.000;0.000;2023-09-18T15:52:25;4.37;;;1.70;;
28958;SDS011;16066;0.000;0.000;2023-09-18T15:54:51;3.20;;;1.67;;
28958;SDS011;16066;0.000;0.000;2023-09-18T15:57:16;1.90;;;1.70;;
28958;SDS011;16066;0.000;0.000;2023-09-18T15:59:42;2.07;;;1.70;;
28958;SDS011;16066;0.000;0.000;2023-09-18T16:02:08;4.20;;;1.67;;
28958;SDS011;16066;0.000;0.000;2023-09-18T16:04:34;3.20;;;1.93;;
28958;SDS011;16066;0.000;0.000;2023-09-18T16:07:01;3.73;;;1.87;;
28958;SDS011;16066;0.000;0.000;2023-09-18T16:09:27;2.43;;;1.70;;
28958;SDS011;16066;0.000;0.000;2023-09-18T16:11:53;3.33;;;1.87;;
28958;SDS011;16066;0.000;0.000;2023-09-18T16:14:18;2.23;;;1.60;;
28958;SDS011;16066;0.000;0.000;2023-09-18T16:16:45;2.40;;;1.60;;
28958;SDS011;16066;0.000;0.000;2023-09-18T16:19:11;2.60;;;1.77;;
28958;SDS011;16066;0.000;0.000;2023-09-18T16:21:37;2.47;;;1.60;;
28958;SDS011;16066;0.000;0.000;2023-09-18T16:24:02;4.13;;;1.80;;
28958;SDS011;16066;0.000;0.000;2023-09-18T16:26:34;3.60;;;1.60;;
28958;SDS011;16066;0.000;0.000;2023-09-18T16:29:00;2.50;;;1.80;;
28958;SDS011;16066;0.000;0.000;2023-09-18T16:31:26;2.93;;;2.00;;
28958;SDS011;16066;0.000;0.000;2023-09-18T16:33:53;2.70;;;1.67;;
28958;SDS011;16066;0.000;0.000;2023-09-18T16:36:19;4.03;;;1.80;;
28958;SDS011;16066;0.000;0.000;2023-09-18T16:38:44;3.10;;;2.20;;
28958;SDS011;16066;0.000;0.000;2023-09-18T16:41:10;4.20;;;2.03;;
28958;SDS011;16066;0.000;0.000;2023-09-18T16:43:36;2.33;;;1.70;;
28958;SDS011;16066;0.000;0.000;2023-09-18T16:46:02;4.90;;;2.13;;
28958;SDS011;16066;0.000;0.000;2023-09-18T16:48:32;2.83;;;2.03;;
28958;SDS011;16066;0.000;0.000;2023-09-18T16:50:59;3.73;;;1.83;;
28958;SDS011;16066;0.000;0.000;2023-09-18T16:53:25;3.00;;;1.90;;
28958;SDS011;16066;0.000;0.000;2023-09-18T16:55:53;3.13;;;2.10;;
28958;SDS011;16066;0.000;0.000;2023-09-18T16:58:19;5.50;;;2.10;;
28958;SDS011;16066;0.000;0.000;2023-09-18T17:00:45;6.27;;;2.10;;
28958;SDS011;16066;0.000;0.000;2023-09-18T17:03:10;3.43;;;1.83;;
28958;SDS011;16066;0.000;0.000;2023-09-18T17:05:36;5.53;;;1.93;;
28958;SDS011;16066;0.000;0.000;2023-09-18T17:08:01;2.10;;;1.90;;
28958;SDS011;16066;0.000;0.000;2023-09-18T17:10:28;5.13;;;1.80;;
28958;SDS011;16066;0.000;0.000;2023-09-18T17:12:55;3.20;;;2.00;;
28958;SDS011;16066;0.000;0.000;2023-09-18T17:15:21;3.43;;;1.80;;
28958;SDS011;16066;0.000;0.000;2023-09-18T17:17:47;5.10;;;2.00;;
28958;SDS011;16066;0.000;0.000;2023-09-18T17:20:12;3.43;;;1.93;;
28958;SDS011;16066;0.000;0.000;2023-09-18T17:22:38;4.40;;;1.70;;
28958;SDS011;16066;0.000;0.000;2023-09-18T17:25:03;2.60;;;1.90;;
28958;SDS011;16066;0.000;0.000;2023-09-18T17:27:34;3.67;;;1.73;;
28958;SDS011;16066;0.000;0.000;2023-09-18T17:30:00;3.70;;;2.20;;
28958;SDS011;16066;0.000;0.000;2023-09-18T17:32:26;5.43;;;1.70;;
28958;SDS011;16066;0.000;0.000;2023-09-18T17:34:52;3.30;;;1.50;;
28958;SDS011;16066;0.000;0.000;2023-09-18T17:37:18;3.13;;;2.00;;
28958;SDS011;16066;0.000;0.000;2023-09-18T17:39:44;3.43;;;1.80;;
28958;SDS011;16066;0.000;0.000;2023-09-18T17:42:10;6.87;;;1.90;;
28958;SDS011;16066;0.000;0.000;2023-09-18T17:44:36;4.53;;;1.80;;
28958;SDS011;16066;0.000;0.000;2023-09-18T17:47:01;2.80;;;1.90;;
28958;SDS011;16066;0.000;0.000;2023-09-18T17:49:27;7.20;;;2.00;;
28958;SDS011;16066;0.000;0.000;2023-09-18T17:51:53;5.20;;;2.17;;
28958;SDS011;16066;0.000;0.000;2023-09-18T17:54:19;3.73;;;2.13;;
28958;SDS011;16066;0.000;0.000;2023-09-18T17:56:45;7.10;;;2.30;;
28958;SDS011;16066;0.000;0.000;2023-09-18T17:59:11;6.00;;;1.67;;
28958;SDS011;16066;0.000;0.000;2023-09-18T18:01:37;4.43;;;2.07;;
28958;SDS011;16066;0.000;0.000;2023-09-18T18:04:03;9.77;;;2.30;;
28958;SDS011;16066;0.000;0.000;2023-09-18T18:06:29;3.03;;;1.90;;
28958;SDS011;16066;0.000;0.000;2023-09-18T18:08:55;4.63;;;1.90;;
28958;SDS011;16066;0.000;0.000;2023-09-18T18:11:21;4.67;;;2.50;;
28958;SDS011;16066;0.000;0.000;2023-09-18T18:13:47;12.63;;;2.37;;
28958;SDS011;16066;0.000;0.000;2023-09-18T18:16:12;3.40;;;1.93;;
28958;SDS011;16066;0.000;0.000;2023-09-18T18:18:38;3.77;;;1.63;;
28958;SDS011;16066;0.000;0.000;2023-09-18T18:21:03;4.70;;;2.33;;
28958;SDS011;16066;0.000;0.000;2023-09-18T18:23:29;2.23;;;1.60;;
28958;SDS011;16066;0.000;0.000;2023-09-18T18:25:55;1.97;;;1.60;;
28958;SDS011;16066;0.000;0.000;2023-09-18T18:28:20;2.10;;;1.33;;
28958;SDS011;16066;0.000;0.000;2023-09-18T18:30:48;4.07;;;1.73;;
28958;SDS011;16066;0.000;0.000;2023-09-18T18:33:15;6.70;;;1.80;;
28958;SDS011;16066;0.000;0.000;2023-09-18T18:35:47;9.93;;;1.70;;
28958;SDS011;16066;0.000;0.000;2023-09-18T18:38:13;2.13;;;1.50;;
28958;SDS011;16066;0.000;0.000;2023-09-18T18:40:39;4.63;;;1.73;;
28958;SDS011;16066;0.000;0.000;2023-09-18T18:43:08;3.37;;;1.83;;
28958;SDS011;16066;0.000;0.000;2023-09-18T18:45:40;3.43;;;2.00;;
28958;SDS011;16066;0.000;0.000;2023-09-18T18:48:08;5.03;;;2.10;;
28958;SDS011;16066;0.000;0.000;2023-09-18T18:50:34;2.53;;;2.03;;
28958;SDS011;16066;0.000;0.000;2023-09-18T18:53:03;6.03;;;2.17;;
28958;SDS011;16066;0.000;0.000;2023-09-18T18:55:29;5.77;;;2.03;;
28958;SDS011;16066;0.000;0.000;2023-09-18T18:57:56;4.93;;;1.90;;
28958;SDS011;16066;0.000;0.000;2023-09-18T19:00:22;6.70;;;2.17;;
28958;SDS011;16066;0.000;0.000;2023-09-18T19:02:47;3.70;;;2.20;;
28958;SDS011;16066;0.000;0.000;2023-09-18T19:05:13;2.47;;;1.83;;
28958;SDS011;16066;0.000;0.000;2023-09-18T19:07:38;3.10;;;1.73;;
28958;SDS011;16066;0.000;0.000;2023-09-18T19:10:04;2.77;;;1.67;;
28958;SDS011;16066;0.000;0.000;2023-09-18T19:12:30;4.70;;;1.80;;
28958;SDS011;16066;0.000;0.000;2023-09-18T19:14:58;2.20;;;1.30;;
28958;SDS011;16066;0.000;0.000;2023-09-18T19:17:24;2.70;;;1.80;;
28958;SDS011;16066;0.000;0.000;2023-09-18T19:19:49;4.83;;;1.70;;
28958;SDS011;16066;0.000;0.000;2023-09-18T19:22:16;3.20;;;1.70;;
28958;SDS011;16066;0.000;0.000;2023-09-18T19:24:41;2.40;;;1.60;;
28958;SDS011;16066;0.000;0.000;2023-09-18T19:27:07;3.67;;;2.17;;
28958;SDS011;16066;0.000;0.000;2023-09-18T19:29:33;4.80;;;2.00;;
28958;SDS011;16066;0.000;0.000;2023-09-18T19:31:59;3.37;;;1.83;;
28958;SDS011;16066;0.000;0.000;2023-09-18T19:34:25;2.03;;;1.60;;
28958;SDS011;16066;0.000;0.000;2023-09-18T19:36:50;3.80;;;1.87;;
28958;SDS011;16066;0.000;0.000;2023-09-18T19:39:18;2.67;;;2.00;;
28958;SDS011;16066;0.000;0.000;2023-09-18T19:41:45;1.90;;;1.60;;
28958;SDS011;16066;0.000;0.000;2023-09-18T19:44:11;2.43;;;1.70;;
28958;SDS011;16066;0.000;0.000;2023-09-18T19:46:36;6.20;;;2.00;;
28958;SDS011;16066;0.000;0.000;2023-09-18T19:49:03;2.07;;;1.70;;
28958;SDS011;16066;0.000;0.000;2023-09-18T19:51:31;6.60;;;1.80;;
28958;SDS011;16066;0.000;0.000;2023-09-18T19:53:57;2.67;;;1.97;;
28958;SDS011;16066;0.000;0.000;2023-09-18T19:56:23;4.60;;;1.97;;
28958;SDS011;16066;0.000;0.000;2023-09-18T19:58:49;4.30;;;2.20;;
28958;SDS011;16066;0.000;0.000;2023-09-18T20:01:15;2.87;;;1.80;;
28958;SDS011;16066;0.000;0.000;2023-09-18T20:03:41;2.30;;;1.80;;
28958;SDS011;16066;0.000;0.000;2023-09-18T20:06:06;4.13;;;1.70;;
28958;SDS011;16066;0.000;0.000;2023-09-18T20:08:33;3.77;;;1.80;;
28958;SDS011;16066;0.000;0.000;2023-09-18T20:10:59;4.90;;;2.03;;
28958;SDS011;16066;0.000;0.000;2023-09-18T20:13:27;3.00;;;1.60;;
28958;SDS011;16066;0.000;0.000;2023-09-18T20:15:54;2.67;;;1.60;;
28958;SDS011;16066;0.000;0.000;2023-09-18T20:18:20;2.17;;;1.93;;
28958;SDS011;16066;0.000;0.000;2023-09-18T20:20:45;2.10;;;1.60;;
28958;SDS011;16066;0.000;0.000;2023-09-18T20:23:11;4.50;;;2.10;;
28958;SDS011;16066;0.000;0.000;2023-09-18T20:25:36;2.73;;;1.87;;
28958;SDS011;16066;0.000;0.000;2023-09-18T20:28:02;1.93;;;1.57;;
28958;SDS011;16066;0.000;0.000;2023-09-18T20:30:28;2.10;;;1.60;;
28958;SDS011;16066;0.000;0.000;2023-09-18T20:32:54;2.67;;;1.77;;
28958;SDS011;16066;0.000;0.000;2023-09-18T20:35:21;3.10;;;1.90;;
28958;SDS011;16066;0.000;0.000;2023-09-18T20:37:46;2.50;;;1.87;;
28958;SDS011;16066;0.000;0.000;2023-09-18T20:40:12;2.30;;;1.37;;
28958;SDS011;16066;0.000;0.000;2023-09-18T20:42:38;6.97;;;1.87;;